Time;durP1;ratioP1;P1;durP2;ratioP2;P2;SDS_P1;SDS_P2;PMS_P1;PMS_P2;Temp;Humidity;BMP_temperature;BMP_pressure;BME280_temperature;BME280_humidity;BME280_pressure;Samples;Min_cycle;Max_cycle;Signal;HPM_P1;HPM_P2
2024/01/17 00:01:48;;;;;;;9.63;2.47;;;28.20;99.90;;;;;;5030435;28;20220;-79
2024/01/17 00:04:18;;;;;;;11.90;2.80;;;28.30;99.90;;;;;;5032715;28;20227;-78
2024/01/17 00:06:49;;;;;;;12.80;2.58;;;28.30;99.90;;;;;;5035938;28;20236;-79
2024/01/17 00:09:20;;;;;;;11.93;2.45;;;28.20;99.90;;;;;;5034300;28;20670;-78
2024/01/17 00:11:52;;;;;;;11.93;2.58;;;28.10;99.90;;;;;;5032104;28;20240;-78
2024/01/17 00:14:24;;;;;;;9.88;2.30;;;28.10;99.90;;;;;;5066493;28;20288;-78
2024/01/17 00:16:57;;;;;;;9.48;2.33;;;28.10;99.90;;;;;;5071384;28;20248;-79
2024/01/17 00:19:29;;;;;;;12.73;2.47;;;28.20;99.90;;;;;;5053971;28;20216;-79
2024/01/17 00:22:01;;;;;;;9.57;2.10;;;28.20;99.90;;;;;;5073057;28;20227;-79
2024/01/17 00:24:32;;;;;;;9.68;2.70;;;28.30;99.90;;;;;;5091593;28;20195;-80
2024/01/17 00:27:03;;;;;;;8.32;2.00;;;28.30;99.90;;;;;;5073044;28;20650;-79
2024/01/17 00:29:36;;;;;;;9.40;2.00;;;28.40;99.90;;;;;;5068723;28;20291;-79
2024/01/17 00:32:06;;;;;;;8.52;2.05;;;28.50;99.90;;;;;;5060224;28;20196;-78
2024/01/17 00:34:37;;;;;;;9.43;2.20;;;28.60;99.90;;;;;;5072284;28;20298;-79
2024/01/17 00:37:09;;;;;;;10.07;2.33;;;28.80;99.90;;;;;;5068581;28;20234;-79
2024/01/17 00:39:39;;;;;;;9.77;2.40;;;28.80;99.90;;;;;;5073572;28;20204;-78
2024/01/17 00:42:10;;;;;;;11.82;2.65;;;28.90;99.90;;;;;;5072806;28;20227;-79
2024/01/17 00:44:44;;;;;;;9.18;2.20;;;28.80;99.90;;;;;;5072901;28;20206;-79
2024/01/17 00:47:15;;;;;;;9.90;2.30;;;28.80;99.90;;;;;;5067725;28;20627;-78
2024/01/17 00:49:45;;;;;;;8.32;2.15;;;28.70;99.90;;;;;;5057895;28;20680;-79
2024/01/17 00:52:16;;;;;;;11.10;2.40;;;28.70;99.90;;;;;;5072616;28;20275;-79
2024/01/17 00:54:47;;;;;;;6.82;1.70;;;28.60;99.90;;;;;;5071719;28;20207;-79
2024/01/17 00:57:18;;;;;;;8.10;2.30;;;28.50;99.90;;;;;;5066804;28;20192;-80
2024/01/17 00:59:50;;;;;;;7.57;1.90;;;28.40;99.90;;;;;;5056142;28;20204;-79
2024/01/17 01:02:21;;;;;;;10.98;2.10;;;28.40;99.90;;;;;;5081905;28;20223;-79
2024/01/17 01:04:52;;;;;;;8.80;2.17;;;28.30;99.90;;;;;;5053681;28;20609;-79
2024/01/17 01:07:22;;;;;;;10.95;2.22;;;28.30;99.90;;;;;;5061679;28;20227;-78
2024/01/17 01:09:53;;;;;;;8.85;2.00;;;28.30;99.90;;;;;;5076828;28;20207;-78
2024/01/17 01:12:24;;;;;;;4.90;1.67;;;28.30;99.90;;;;;;5074072;28;20215;-79
2024/01/17 01:14:56;;;;;;;7.05;1.98;;;28.30;99.90;;;;;;5061445;28;20199;-78
2024/01/17 01:17:27;;;;;;;7.20;2.00;;;28.30;99.90;;;;;;5072434;28;20570;-80
2024/01/17 01:19:58;;;;;;;8.35;2.03;;;28.30;99.90;;;;;;5053770;28;20223;-79
2024/01/17 01:22:31;;;;;;;11.13;2.25;;;28.30;99.90;;;;;;5068941;28;20227;-80
2024/01/17 01:25:08;;;;;;;7.43;2.00;;;28.20;99.90;;;;;;5068756;28;20253;-79
2024/01/17 01:27:39;;;;;;;7.28;1.60;;;28.20;99.90;;;;;;5075671;28;20286;-78
2024/01/17 01:30:13;;;;;;;6.72;1.77;;;28.20;99.90;;;;;;5073896;28;20283;-80
2024/01/17 01:32:43;;;;;;;4.65;1.40;;;28.20;99.90;;;;;;5074955;28;20203;-79
2024/01/17 01:35:14;;;;;;;5.80;1.88;;;28.20;99.90;;;;;;5086389;28;20198;-77
2024/01/17 01:37:45;;;;;;;9.05;1.92;;;28.20;99.90;;;;;;5070144;28;20230;-79
2024/01/17 01:40:16;;;;;;;8.27;1.70;;;28.30;99.90;;;;;;5083843;28;20646;-77
2024/01/17 01:42:47;;;;;;;9.43;1.90;;;28.20;99.90;;;;;;5069325;28;20216;-77
2024/01/17 01:45:20;;;;;;;5.32;2.00;;;28.30;99.90;;;;;;5062331;28;20196;-77
2024/01/17 01:47:50;;;;;;;6.88;1.83;;;28.30;99.90;;;;;;5072868;28;20195;-77
2024/01/17 01:50:21;;;;;;;5.60;1.58;;;28.30;99.90;;;;;;5073623;28;20192;-77
2024/01/17 01:52:55;;;;;;;6.40;1.58;;;28.30;99.90;;;;;;5061522;28;20204;-77
2024/01/17 01:55:24;;;;;;;6.68;1.60;;;28.30;99.90;;;;;;5063853;28;20565;-77
2024/01/17 01:57:55;;;;;;;6.82;1.73;;;28.40;99.90;;;;;;5051650;28;20232;-78
2024/01/17 02:00:28;;;;;;;8.25;1.90;;;28.40;99.90;;;;;;5075756;28;20700;-77
2024/01/17 02:02:59;;;;;;;6.07;1.90;;;28.40;99.90;;;;;;5092082;28;20222;-78
2024/01/17 02:05:30;;;;;;;6.28;1.70;;;28.40;99.90;;;;;;5092059;28;20286;-78
2024/01/17 02:08:01;;;;;;;8.00;1.88;;;28.30;99.90;;;;;;5091443;28;20541;-77
2024/01/17 02:10:33;;;;;;;7.20;1.75;;;28.40;99.90;;;;;;5051793;28;20200;-78
2024/01/17 02:13:04;;;;;;;9.90;1.67;;;28.30;99.90;;;;;;5051363;28;20283;-78
2024/01/17 02:15:36;;;;;;;5.97;1.55;;;28.30;99.90;;;;;;5051325;28;20201;-78
2024/01/17 02:18:07;;;;;;;8.20;1.92;;;28.30;99.90;;;;;;5060562;28;20286;-78
2024/01/17 02:20:38;;;;;;;6.05;1.80;;;28.30;99.90;;;;;;5071037;28;20578;-77
2024/01/17 02:23:27;;;;;;;7.32;1.73;;;28.20;99.90;;;;;;5070753;28;20224;-77
2024/01/17 02:26:00;;;;;;;8.13;1.90;;;28.20;99.90;;;;;;5067746;28;20192;-76
2024/01/17 02:28:32;;;;;;;7.43;1.92;;;28.20;99.90;;;;;;5051564;28;20598;-78
2024/01/17 02:31:03;;;;;;;6.05;1.73;;;28.10;99.90;;;;;;5085324;28;20579;-78
2024/01/17 02:33:34;;;;;;;7.07;1.67;;;28.00;99.90;;;;;;5087180;28;20203;-77
2024/01/17 02:36:07;;;;;;;6.35;1.60;;;28.00;99.90;;;;;;5074644;28;20658;-79
2024/01/17 02:38:38;;;;;;;10.77;1.90;;;27.90;99.90;;;;;;5073665;28;20191;-78
2024/01/17 02:41:11;;;;;;;6.43;1.80;;;27.90;99.90;;;;;;5080932;28;20203;-77
2024/01/17 02:43:42;;;;;;;9.38;2.03;;;27.90;99.90;;;;;;5069865;28;20240;-78
2024/01/17 02:46:12;;;;;;;6.72;1.60;;;27.90;99.90;;;;;;5060838;28;20279;-77
2024/01/17 02:48:43;;;;;;;7.10;1.98;;;27.90;99.90;;;;;;5071193;28;20195;-77
2024/01/17 02:51:14;;;;;;;8.05;1.90;;;27.90;99.90;;;;;;5071707;28;20195;-78
2024/01/17 02:53:45;;;;;;;6.28;1.65;;;27.90;99.90;;;;;;5062637;28;20195;-78
2024/01/17 02:56:18;;;;;;;7.65;2.13;;;27.90;99.90;;;;;;5083347;28;20214;-78
2024/01/17 02:58:50;;;;;;;7.70;1.90;;;27.90;99.90;;;;;;5059423;28;20203;-77
2024/01/17 03:01:20;;;;;;;8.13;1.90;;;27.90;99.90;;;;;;5070515;28;20184;-77
2024/01/17 03:03:52;;;;;;;7.47;1.90;;;27.90;99.90;;;;;;5063406;28;20226;-77
2024/01/17 03:06:23;;;;;;;7.80;2.10;;;27.90;99.90;;;;;;5069920;28;20228;-77
2024/01/17 03:08:54;;;;;;;14.52;2.30;;;27.90;99.90;;;;;;5069946;28;20200;-77
2024/01/17 03:11:26;;;;;;;8.35;2.28;;;27.90;99.90;;;;;;5070166;28;20199;-78
2024/01/17 03:13:57;;;;;;;11.27;2.60;;;28.00;99.90;;;;;;5060655;28;20200;-77
2024/01/17 03:16:28;;;;;;;8.40;2.30;;;28.00;99.90;;;;;;5081798;28;20205;-78
2024/01/17 03:18:59;;;;;;;8.40;1.77;;;28.10;99.90;;;;;;5083734;28;20279;-77
2024/01/17 03:21:29;;;;;;;7.47;1.95;;;28.10;99.90;;;;;;5049982;28;20267;-77
2024/01/17 03:24:00;;;;;;;8.73;2.25;;;28.10;99.90;;;;;;5049886;28;20224;-77
2024/01/17 03:26:33;;;;;;;10.73;2.00;;;28.10;99.90;;;;;;5049839;28;20236;-78
2024/01/17 03:29:03;;;;;;;7.68;1.83;;;28.10;99.90;;;;;;5089214;28;20219;-77
2024/01/17 03:31:34;;;;;;;5.40;1.70;;;28.10;99.90;;;;;;5079947;28;20561;-77
2024/01/17 03:34:05;;;;;;;7.93;2.08;;;28.00;99.90;;;;;;5059244;28;20202;-77
2024/01/17 03:36:36;;;;;;;11.88;2.55;;;28.00;99.90;;;;;;5071896;28;20210;-78
2024/01/17 03:39:07;;;;;;;8.15;1.67;;;28.00;99.90;;;;;;5056388;28;20685;-78
2024/01/17 03:41:39;;;;;;;4.80;1.65;;;27.90;99.90;;;;;;5054319;28;20283;-78
2024/01/17 03:44:10;;;;;;;7.85;1.90;;;27.90;99.90;;;;;;5054062;28;20235;-78
2024/01/17 03:46:41;;;;;;;6.60;1.35;;;27.80;99.90;;;;;;5066358;28;20211;-78
2024/01/17 03:49:11;;;;;;;11.40;1.95;;;27.70;99.90;;;;;;5058635;28;20294;-78
2024/01/17 03:51:42;;;;;;;7.15;1.80;;;27.60;99.90;;;;;;5073900;28;20253;-78
2024/01/17 03:54:13;;;;;;;8.93;2.25;;;27.60;99.90;;;;;;5058875;28;20663;-78
2024/01/17 03:56:46;;;;;;;5.80;1.85;;;27.60;99.90;;;;;;5058756;28;20706;-77
2024/01/17 03:59:16;;;;;;;9.93;2.08;;;27.60;99.90;;;;;;5054178;28;20694;-77
2024/01/17 04:01:47;;;;;;;11.15;2.00;;;27.60;99.90;;;;;;5054050;28;20211;-77
2024/01/17 04:04:18;;;;;;;11.23;2.53;;;27.40;99.90;;;;;;5056571;28;20235;-78
2024/01/17 04:06:48;;;;;;;12.40;2.00;;;27.40;99.90;;;;;;5053793;28;20231;-77
2024/01/17 04:09:19;;;;;;;9.77;2.40;;;27.40;99.90;;;;;;5055402;28;20204;-77
2024/01/17 04:11:52;;;;;;;7.85;2.20;;;27.40;99.90;;;;;;5078214;28;20672;-78
2024/01/17 04:14:22;;;;;;;8.65;2.20;;;27.30;99.90;;;;;;5061938;28;20192;-78
2024/01/17 04:16:53;;;;;;;8.38;2.10;;;27.30;99.90;;;;;;5075125;28;20662;-77
2024/01/17 04:19:24;;;;;;;8.02;1.88;;;27.10;99.90;;;;;;5061561;28;20197;-78
2024/01/17 04:21:57;;;;;;;9.57;2.22;;;27.10;99.90;;;;;;5073261;28;20196;-78
2024/01/17 04:24:28;;;;;;;10.30;2.30;;;27.00;99.90;;;;;;5072993;28;20227;-77
2024/01/17 04:27:00;;;;;;;8.98;2.05;;;27.00;99.90;;;;;;5064755;28;20201;-78
2024/01/17 04:29:31;;;;;;;13.93;2.60;;;27.00;99.90;;;;;;5073307;28;20203;-78
2024/01/17 04:32:05;;;;;;;9.63;2.03;;;27.00;99.90;;;;;;5073110;28;20188;-78
2024/01/17 04:34:35;;;;;;;14.52;2.95;;;27.00;99.90;;;;;;5072616;28;20208;-78
2024/01/17 04:37:07;;;;;;;9.98;2.75;;;26.90;99.90;;;;;;5065785;28;20200;-78
2024/01/17 04:39:37;;;;;;;12.02;2.40;;;26.90;99.90;;;;;;5073056;28;20207;-77
2024/01/17 04:42:10;;;;;;;11.10;2.28;;;26.90;99.90;;;;;;5072777;28;20200;-78
2024/01/17 04:44:41;;;;;;;11.35;2.50;;;27.00;99.90;;;;;;5064203;28;20655;-78
2024/01/17 04:47:12;;;;;;;9.38;2.13;;;26.90;99.90;;;;;;5051457;28;20207;-78
2024/01/17 04:49:42;;;;;;;9.43;2.22;;;26.90;99.90;;;;;;5052448;28;20203;-78
2024/01/17 04:52:16;;;;;;;10.82;2.22;;;26.90;99.90;;;;;;5051789;28;20196;-78
2024/01/17 04:54:46;;;;;;;9.43;2.15;;;26.90;99.90;;;;;;5066443;28;20195;-77
2024/01/17 04:57:19;;;;;;;15.02;2.55;;;26.90;99.90;;;;;;5072981;28;20204;-77
2024/01/17 04:59:50;;;;;;;12.32;2.30;;;26.80;99.90;;;;;;5072868;28;20578;-77
2024/01/17 05:02:21;;;;;;;7.63;2.00;;;26.70;99.90;;;;;;5074658;28;20210;-77
2024/01/17 05:04:51;;;;;;;10.25;2.33;;;26.60;99.90;;;;;;5068577;28;20196;-77
2024/01/17 05:07:22;;;;;;;10.07;2.25;;;26.50;99.90;;;;;;5071910;28;20274;-77
2024/01/17 05:09:53;;;;;;;10.77;2.22;;;26.40;99.90;;;;;;5065925;28;20211;-76
2024/01/17 05:12:25;;;;;;;9.02;2.55;;;26.40;99.90;;;;;;5076607;28;20196;-78
2024/01/17 05:14:57;;;;;;;13.93;2.38;;;26.40;99.90;;;;;;5070034;28;20289;-77
2024/01/17 05:17:28;;;;;;;11.82;2.53;;;26.40;99.90;;;;;;5061826;28;20195;-77
2024/01/17 05:19:58;;;;;;;11.20;2.40;;;26.40;99.90;;;;;;5052887;28;20200;-77
2024/01/17 05:22:29;;;;;;;11.07;2.33;;;26.30;99.90;;;;;;5077799;28;20240;-77
2024/01/17 05:25:00;;;;;;;12.18;2.58;;;26.30;99.90;;;;;;5063996;28;20281;-77
2024/01/17 05:27:32;;;;;;;8.40;2.05;;;26.30;99.90;;;;;;5073498;28;20230;-77
2024/01/17 05:30:03;;;;;;;13.65;2.78;;;26.30;99.90;;;;;;5080860;28;20196;-77
2024/01/17 05:32:36;;;;;;;10.38;2.60;;;26.30;99.90;;;;;;5073647;28;20198;-76
2024/01/17 05:35:11;;;;;;;14.10;2.63;;;26.30;99.90;;;;;;5074171;28;20203;-78
2024/01/17 05:37:42;;;;;;;11.90;2.42;;;26.20;99.90;;;;;;5064191;28;20196;-77
2024/01/17 05:40:14;;;;;;;9.55;2.33;;;26.20;99.90;;;;;;5070264;28;20192;-77
2024/01/17 05:42:48;;;;;;;10.05;2.22;;;26.20;99.90;;;;;;5061817;28;20192;-78
2024/01/17 05:45:18;;;;;;;7.18;2.05;;;26.20;99.90;;;;;;5080305;28;20637;-78
2024/01/17 05:47:49;;;;;;;9.57;2.33;;;26.10;99.90;;;;;;5089351;28;20672;-78
2024/01/17 05:50:20;;;;;;;12.27;2.90;;;26.10;99.90;;;;;;5062821;28;20189;-77
2024/01/17 05:52:51;;;;;;;12.57;2.83;;;26.10;99.90;;;;;;5070764;28;20199;-78
2024/01/17 05:55:21;;;;;;;8.63;2.40;;;26.00;99.90;;;;;;5062140;28;20560;-78
2024/01/17 05:57:54;;;;;;;16.42;3.17;;;26.00;99.90;;;;;;5051242;28;20201;-78
2024/01/17 06:00:25;;;;;;;13.63;2.90;;;26.00;99.90;;;;;;5051511;28;20188;-78
2024/01/17 06:02:56;;;;;;;10.05;2.50;;;26.00;99.90;;;;;;5079330;28;20207;-78
2024/01/17 06:05:26;;;;;;;10.40;2.08;;;26.00;99.90;;;;;;5088340;28;20248;-78
2024/01/17 06:07:57;;;;;;;10.80;2.40;;;25.90;99.90;;;;;;5071245;28;20241;-78
2024/01/17 06:10:28;;;;;;;11.90;2.80;;;25.90;99.90;;;;;;5056864;28;20215;-77
2024/01/17 06:13:01;;;;;;;12.52;2.60;;;25.80;99.90;;;;;;5088479;28;20203;-77
2024/01/17 06:15:32;;;;;;;9.55;2.65;;;25.80;99.90;;;;;;5091441;28;20568;-77
2024/01/17 06:18:05;;;;;;;15.55;2.65;;;25.80;99.90;;;;;;5066519;28;20191;-77
2024/01/17 06:20:36;;;;;;;9.52;2.58;;;25.70;99.90;;;;;;5088452;28;20199;-79
2024/01/17 06:23:07;;;;;;;11.20;2.50;;;25.70;99.90;;;;;;5088372;28;20195;-78
2024/01/17 06:25:37;;;;;;;10.50;2.80;;;25.70;99.90;;;;;;5090121;28;20195;-78
2024/01/17 06:28:10;;;;;;;12.63;2.60;;;25.70;99.90;;;;;;5050937;28;20220;-78
2024/01/17 06:30:41;;;;;;;9.55;2.40;;;25.60;99.90;;;;;;5054585;28;20661;-77
2024/01/17 06:33:12;;;;;;;8.50;2.30;;;25.60;99.90;;;;;;5081634;28;20209;-78
2024/01/17 06:35:43;;;;;;;12.65;2.80;;;25.70;99.90;;;;;;5050975;28;20659;-78
2024/01/17 06:38:14;;;;;;;11.25;2.63;;;25.60;99.90;;;;;;5054353;28;20658;-77
2024/01/17 06:40:45;;;;;;;10.10;2.38;;;25.60;99.90;;;;;;5065144;28;20650;-78
2024/01/17 06:43:17;;;;;;;12.13;2.92;;;25.60;99.90;;;;;;5070219;28;20242;-78
2024/01/17 06:45:48;;;;;;;11.40;2.85;;;25.60;99.90;;;;;;5056803;28;20196;-77
2024/01/17 06:48:19;;;;;;;10.90;2.50;;;25.60;99.90;;;;;;5051962;28;20196;-78
2024/01/17 06:50:50;;;;;;;10.20;2.30;;;25.50;99.90;;;;;;5062176;28;20670;-77
2024/01/17 06:53:21;;;;;;;9.10;2.45;;;25.50;99.90;;;;;;5063185;28;20208;-77
2024/01/17 06:55:52;;;;;;;11.15;2.63;;;25.50;99.90;;;;;;5070113;28;20203;-78
2024/01/17 06:58:25;;;;;;;11.50;2.83;;;25.50;99.90;;;;;;5070008;28;20624;-77
2024/01/17 07:00:56;;;;;;;10.65;2.90;;;25.50;99.90;;;;;;5076220;28;20213;-78
2024/01/17 07:03:27;;;;;;;13.43;3.05;;;25.50;99.90;;;;;;5062478;28;20227;-77
2024/01/17 07:05:58;;;;;;;9.75;2.65;;;25.50;99.90;;;;;;5060715;28;20228;-77
2024/01/17 07:08:29;;;;;;;17.55;4.03;;;25.40;99.90;;;;;;5072477;28;20730;-78
2024/01/17 07:11:05;;;;;;;11.60;3.65;;;25.40;99.90;;;;;;5084127;28;20210;-77
2024/01/17 07:13:37;;;;;;;16.85;4.03;;;25.30;99.90;;;;;;5090503;28;20199;-76
2024/01/17 07:16:09;;;;;;;17.52;4.72;;;25.20;99.90;;;;;;5090417;28;20578;-77
2024/01/17 07:18:48;;;;;;;12.70;3.35;;;25.20;99.90;;;;;;5070760;28;20206;-76
2024/01/17 07:21:19;;;;;;;14.75;3.78;;;25.20;99.90;;;;;;5090600;28;20203;-75
2024/01/17 07:23:50;;;;;;;15.80;3.67;;;25.20;99.90;;;;;;5063701;28;20256;-76
2024/01/17 07:26:21;;;;;;;17.95;4.20;;;25.20;99.90;;;;;;5050240;28;20283;-77
2024/01/17 07:28:56;;;;;;;16.42;3.70;;;25.20;99.90;;;;;;5070711;28;20211;-78
2024/01/17 07:31:28;;;;;;;13.75;3.88;;;25.10;99.90;;;;;;5087669;28;20248;-78
2024/01/17 07:33:58;;;;;;;15.82;3.72;;;25.10;99.90;;;;;;5083343;28;20208;-77
2024/01/17 07:36:29;;;;;;;10.13;3.00;;;25.10;99.90;;;;;;5053251;28;20200;-77
2024/01/17 07:39:00;;;;;;;10.07;2.60;;;25.00;99.90;;;;;;5052591;28;20196;-77
2024/01/17 07:41:31;;;;;;;9.30;2.80;;;25.00;99.90;;;;;;5063286;28;20828;-78
2024/01/17 07:44:03;;;;;;;10.63;2.70;;;25.00;99.90;;;;;;5081662;28;20215;-77
2024/01/17 07:46:34;;;;;;;10.10;2.30;;;25.00;99.90;;;;;;5068277;28;20196;-78
2024/01/17 07:49:04;;;;;;;8.05;2.30;;;25.00;99.90;;;;;;5063973;28;20560;-78
2024/01/17 07:51:35;;;;;;;8.13;2.20;;;25.00;99.90;;;;;;5061915;28;20643;-78
2024/01/17 07:54:06;;;;;;;10.00;2.28;;;25.00;99.90;;;;;;5049765;28;20655;-78
2024/01/17 07:56:37;;;;;;;5.82;1.95;;;24.90;99.90;;;;;;5053562;28;20199;-78
2024/01/17 07:59:09;;;;;;;8.10;2.30;;;25.00;99.90;;;;;;5084205;28;20586;-77
2024/01/17 08:01:40;;;;;;;8.02;2.47;;;25.00;99.90;;;;;;5085077;28;20245;-78
2024/01/17 08:04:11;;;;;;;8.20;2.25;;;24.90;99.90;;;;;;5069071;28;20301;-78
2024/01/17 08:06:43;;;;;;;6.82;2.22;;;24.90;99.90;;;;;;5060952;28;20638;-78
2024/01/17 08:09:20;;;;;;;6.43;2.10;;;24.90;99.90;;;;;;5064273;28;20201;-77
2024/01/17 08:11:52;;;;;;;7.85;2.20;;;25.00;99.90;;;;;;5058839;28;20680;-77
2024/01/17 08:14:25;;;;;;;6.28;2.00;;;25.00;99.90;;;;;;5062315;28;20211;-77
2024/01/17 08:16:56;;;;;;;7.78;2.58;;;24.90;99.90;;;;;;5074394;28;20207;-78
2024/01/17 08:19:26;;;;;;;6.95;2.20;;;24.90;99.90;;;;;;5090078;28;20210;-78
2024/01/17 08:21:57;;;;;;;5.18;2.10;;;24.90;99.90;;;;;;5088975;28;20209;-77
2024/01/17 08:24:28;;;;;;;6.40;1.90;;;24.90;99.90;;;;;;5084630;28;20725;-77
2024/01/17 08:26:59;;;;;;;6.18;1.80;;;24.90;99.90;;;;;;5055655;28;20204;-77
2024/01/17 08:29:32;;;;;;;5.95;1.70;;;24.90;99.90;;;;;;5071915;28;20355;-77
2024/01/17 08:32:02;;;;;;;6.25;2.00;;;24.90;99.90;;;;;;5092598;28;20203;-76
2024/01/17 08:34:33;;;;;;;6.50;1.80;;;24.90;99.90;;;;;;5069681;28;20196;-77
2024/01/17 08:37:04;;;;;;;5.97;2.08;;;24.80;99.90;;;;;;5072034;28;20249;-76
2024/01/17 08:39:35;;;;;;;7.63;2.03;;;24.90;99.90;;;;;;5082366;28;20196;-77
2024/01/17 08:42:09;;;;;;;7.15;2.00;;;24.90;99.90;;;;;;5083120;28;20363;-77
2024/01/17 08:44:43;;;;;;;7.88;1.88;;;24.90;99.90;;;;;;5064310;28;20232;-76
2024/01/17 08:47:14;;;;;;;10.35;2.47;;;24.90;99.90;;;;;;5057512;28;20196;-77
2024/01/17 08:49:45;;;;;;;10.45;2.38;;;24.90;99.90;;;;;;5068824;28;20192;-77
2024/01/17 08:52:16;;;;;;;9.68;2.50;;;24.80;99.90;;;;;;5074254;28;20291;-77
2024/01/17 08:54:46;;;;;;;9.77;2.90;;;24.80;99.90;;;;;;5073584;28;20196;-77
2024/01/17 08:57:17;;;;;;;8.77;2.63;;;24.80;99.90;;;;;;5073184;28;20202;-77
2024/01/17 08:59:50;;;;;;;7.13;2.38;;;24.80;99.90;;;;;;5072478;28;20214;-77
2024/01/17 09:02:21;;;;;;;9.77;2.60;;;24.70;99.90;;;;;;5052982;28;20200;-78
2024/01/17 09:04:52;;;;;;;10.00;2.28;;;24.70;99.90;;;;;;5062924;28;20234;-77
2024/01/17 09:07:22;;;;;;;10.90;2.45;;;24.60;99.90;;;;;;5092751;28;20702;-77
2024/01/17 09:09:53;;;;;;;11.80;2.42;;;24.60;99.90;;;;;;5092989;28;20195;-77
2024/01/17 09:12:24;;;;;;;14.35;3.05;;;24.60;99.90;;;;;;5082273;28;20202;-76
2024/01/17 09:14:56;;;;;;;14.23;2.80;;;24.60;99.90;;;;;;5089553;28;20206;-76
2024/01/17 09:17:27;;;;;;;10.30;2.58;;;24.60;99.90;;;;;;5061341;28;20235;-77
2024/01/17 09:19:58;;;;;;;13.80;3.08;;;24.50;99.90;;;;;;5074490;28;20218;-77
2024/01/17 09:22:29;;;;;;;9.00;2.05;;;24.60;99.90;;;;;;5089948;28;20198;-76
2024/01/17 09:25:00;;;;;;;11.07;2.65;;;24.60;99.90;;;;;;5075147;28;20737;-77
2024/01/17 09:27:31;;;;;;;11.10;2.50;;;24.60;99.90;;;;;;5052027;28;20213;-77
2024/01/17 09:30:04;;;;;;;10.02;2.55;;;24.50;99.90;;;;;;5059818;28;20196;-77
2024/01/17 09:32:35;;;;;;;13.80;2.50;;;24.50;99.90;;;;;;5070330;28;20238;-76
2024/01/17 09:35:08;;;;;;;11.77;2.33;;;24.50;99.90;;;;;;5050416;28;20197;-75
2024/01/17 09:37:38;;;;;;;11.90;2.85;;;24.50;99.90;;;;;;5051989;28;20196;-76
2024/01/17 09:40:10;;;;;;;10.18;2.22;;;24.50;99.90;;;;;;5081907;28;20191;-76
2024/01/17 09:42:42;;;;;;;8.63;2.17;;;24.50;99.90;;;;;;5079646;28;21203;-75
2024/01/17 09:45:16;;;;;;;11.15;2.42;;;24.50;99.90;;;;;;5087453;28;20316;-76
2024/01/17 09:47:48;;;;;;;8.65;2.40;;;24.50;99.90;;;;;;5092267;28;20252;-76
2024/01/17 09:50:22;;;;;;;7.80;2.25;;;24.50;99.90;;;;;;5080212;28;20692;-76
2024/01/17 09:52:55;;;;;;;11.30;2.70;;;24.50;99.90;;;;;;5054940;28;20197;-76
2024/01/17 09:55:28;;;;;;;10.63;2.33;;;24.50;99.90;;;;;;5088775;28;20207;-76
2024/01/17 09:58:01;;;;;;;9.80;2.60;;;24.50;99.90;;;;;;5091619;28;20547;-74
2024/01/17 10:00:37;;;;;;;9.45;2.17;;;24.50;99.90;;;;;;5088919;28;20199;-75
2024/01/17 10:03:08;;;;;;;9.55;2.50;;;24.50;99.90;;;;;;5086825;28;20202;-76
2024/01/17 10:05:40;;;;;;;9.05;2.60;;;24.50;99.90;;;;;;5088925;28;20219;-76
2024/01/17 10:08:12;;;;;;;10.00;2.50;;;24.50;99.90;;;;;;5064338;28;20196;-76
2024/01/17 10:10:43;;;;;;;9.60;2.67;;;24.50;99.90;;;;;;5051653;28;20279;-75
2024/01/17 10:13:13;;;;;;;7.20;2.60;;;24.50;99.90;;;;;;5067454;28;20662;-76
2024/01/17 10:15:49;;;;;;;9.05;2.55;;;24.50;99.90;;;;;;5071090;28;20567;-76
2024/01/17 10:18:19;;;;;;;8.70;2.10;;;24.50;99.90;;;;;;5071519;28;20202;-76
2024/01/17 10:20:50;;;;;;;7.30;1.85;;;24.60;99.90;;;;;;5071458;28;20572;-77
2024/01/17 10:23:21;;;;;;;7.28;1.65;;;24.50;99.90;;;;;;5071439;28;20203;-77
2024/01/17 10:25:52;;;;;;;7.75;1.50;;;24.60;99.90;;;;;;5055857;28;20227;-77
2024/01/17 10:28:23;;;;;;;5.93;1.50;;;24.50;99.90;;;;;;5050791;28;20213;-77
2024/01/17 10:30:56;;;;;;;4.05;1.20;;;24.60;99.90;;;;;;5056302;28;20196;-77
2024/01/17 10:33:27;;;;;;;4.22;1.25;;;24.60;99.90;;;;;;5065722;28;20218;-77
2024/01/17 10:35:58;;;;;;;4.32;1.52;;;24.60;99.90;;;;;;5083932;28;20286;-76
2024/01/17 10:38:33;;;;;;;3.80;1.23;;;24.60;99.90;;;;;;5078987;28;20287;-76
2024/01/17 10:41:08;;;;;;;5.15;1.27;;;24.60;99.90;;;;;;5068551;28;20196;-76
2024/01/17 10:43:56;;;;;;;4.65;1.30;;;24.60;99.90;;;;;;5051082;28;20199;-76
2024/01/17 10:46:28;;;;;;;5.43;1.58;;;24.60;99.90;;;;;;5080566;28;20226;-76
2024/01/17 10:48:59;;;;;;;4.82;1.40;;;24.60;99.90;;;;;;5066581;28;20710;-76
2024/01/17 10:51:33;;;;;;;3.70;1.65;;;24.60;99.90;;;;;;5071120;28;20195;-76
2024/01/17 10:54:04;;;;;;;5.80;1.92;;;24.60;99.90;;;;;;5049772;28;20201;-77
2024/01/17 10:56:39;;;;;;;5.65;1.67;;;24.60;99.90;;;;;;5050345;28;20200;-76
2024/01/17 10:59:12;;;;;;;7.22;2.50;;;24.60;99.90;;;;;;5051175;28;20203;-76
2024/01/17 11:01:49;;;;;;;7.15;2.40;;;24.60;99.90;;;;;;5056105;28;20206;-77
2024/01/17 11:04:25;;;;;;;7.13;2.00;;;24.70;99.90;;;;;;5065454;28;20192;-77
2024/01/17 11:06:56;;;;;;;5.20;2.15;;;24.70;99.90;;;;;;5067359;28;20227;-76
2024/01/17 11:09:30;;;;;;;4.53;2.00;;;24.70;99.90;;;;;;5069417;28;20208;-76
2024/01/17 11:12:01;;;;;;;5.63;2.20;;;24.70;99.90;;;;;;5053932;28;20203;-76
2024/01/17 11:14:34;;;;;;;7.05;3.30;;;24.60;99.90;;;;;;5065118;28;20203;-76
2024/01/17 11:17:07;;;;;;;6.63;2.72;;;24.70;99.90;;;;;;5069996;28;20200;-76
2024/01/17 11:19:39;;;;;;;5.15;2.38;;;24.60;99.90;;;;;;5073344;28;20693;-76
2024/01/17 11:22:11;;;;;;;6.35;2.40;;;24.60;99.90;;;;;;5090319;28;20199;-77
2024/01/17 11:24:49;;;;;;;5.50;2.05;;;24.60;99.90;;;;;;5090252;28;20199;-76
2024/01/17 11:27:28;;;;;;;6.68;2.17;;;24.50;99.90;;;;;;5060943;28;20298;-76
2024/01/17 11:30:08;;;;;;;7.00;2.40;;;24.50;99.90;;;;;;5087651;28;20195;-76
2024/01/17 11:32:52;;;;;;;6.97;2.30;;;24.50;99.90;;;;;;5072643;28;20247;-76
2024/01/17 11:35:44;;;;;;;2.35;1.50;;;24.50;99.90;;;;;;5049701;28;20571;-76
2024/01/17 11:38:31;;;;;;;3.40;1.80;;;24.50;99.90;;;;;;5049992;28;20258;-76
2024/01/17 11:41:05;;;;;;;5.00;2.00;;;24.50;99.90;;;;;;5081229;28;20191;-76
2024/01/17 11:43:38;;;;;;;7.00;2.47;;;24.50;99.90;;;;;;5053580;28;20224;-77
2024/01/17 11:46:10;;;;;;;7.47;2.10;;;24.50;99.90;;;;;;5069804;28;20254;-76
2024/01/17 11:48:44;;;;;;;11.23;2.72;;;24.50;99.90;;;;;;5081587;28;20195;-76
2024/01/17 11:51:21;;;;;;;10.75;2.58;;;24.50;99.90;;;;;;5050226;28;20200;-77
2024/01/17 11:53:53;;;;;;;5.07;2.30;;;24.50;99.90;;;;;;5050630;28;20254;-77
2024/01/17 11:56:28;;;;;;;3.60;1.92;;;24.50;99.90;;;;;;5051187;28;20193;-76
2024/01/17 11:59:06;;;;;;;3.47;2.00;;;24.50;99.90;;;;;;5054422;28;20188;-76
2024/01/17 12:01:44;;;;;;;2.75;1.65;;;24.50;99.90;;;;;;5054317;28;20279;-76
2024/01/17 12:04:19;;;;;;;5.03;2.10;;;24.50;99.90;;;;;;5069385;28;20206;-76
2024/01/17 12:06:52;;;;;;;5.32;2.15;;;24.50;99.90;;;;;;5056644;28;20698;-76
2024/01/17 12:09:23;;;;;;;5.40;2.30;;;24.60;99.90;;;;;;5053229;28;20239;-76
2024/01/17 12:11:54;;;;;;;4.05;2.17;;;24.60;99.90;;;;;;5064369;28;20211;-76
2024/01/17 12:14:24;;;;;;;3.65;2.00;;;24.60;99.90;;;;;;5061105;28;20202;-76
2024/01/17 12:16:56;;;;;;;2.47;2.00;;;24.60;99.90;;;;;;5076275;28;20204;-76
2024/01/17 12:19:28;;;;;;;3.00;1.90;;;24.60;99.90;;;;;;5059576;28;20196;-76
2024/01/17 12:21:59;;;;;;;2.97;1.70;;;24.70;99.90;;;;;;5058454;28;20224;-76
2024/01/17 12:24:30;;;;;;;3.17;1.77;;;24.70;99.90;;;;;;5064828;28;20290;-76
2024/01/17 12:27:01;;;;;;;3.08;1.80;;;24.70;99.90;;;;;;5078838;28;20224;-76
2024/01/17 12:29:33;;;;;;;2.17;1.52;;;24.70;99.90;;;;;;5060802;28;20200;-76
2024/01/17 12:32:05;;;;;;;2.95;1.60;;;24.70;99.90;;;;;;5069605;28;20191;-77
2024/01/17 12:34:37;;;;;;;2.10;1.23;;;24.60;99.90;;;;;;5078675;28;20199;-76
2024/01/17 12:37:08;;;;;;;2.28;1.35;;;24.60;99.90;;;;;;5057731;28;20220;-75
2024/01/17 12:39:39;;;;;;;2.25;1.10;;;24.60;99.90;;;;;;5065838;28;20200;-75
2024/01/17 12:42:10;;;;;;;2.05;1.02;;;24.60;99.90;;;;;;5060693;28;20280;-76
2024/01/17 12:44:41;;;;;;;3.70;1.27;;;24.60;99.90;;;;;;5073226;28;20204;-76
2024/01/17 12:47:13;;;;;;;1.17;1.05;;;24.60;99.90;;;;;;5073050;28;20741;-76
2024/01/17 12:49:48;;;;;;;1.45;1.05;;;24.60;99.90;;;;;;5073152;28;20627;-76
2024/01/17 12:52:20;;;;;;;1.83;1.00;;;24.60;99.90;;;;;;5057015;28;20196;-76
2024/01/17 12:54:51;;;;;;;2.65;1.20;;;24.60;99.90;;;;;;5073498;28;20672;-76
2024/01/17 12:57:22;;;;;;;1.60;1.00;;;24.60;99.90;;;;;;5067105;28;20213;-76
2024/01/17 12:59:52;;;;;;;2.33;1.02;;;24.60;99.90;;;;;;5061973;28;20200;-77
2024/01/17 13:02:24;;;;;;;1.77;1.00;;;24.60;99.90;;;;;;5090547;28;20199;-77
2024/01/17 13:05:12;;;;;;;1.38;1.23;;;24.60;99.90;;;;;;5092871;28;20287;-76
2024/01/17 13:07:44;;;;;;;1.42;1.02;;;24.60;99.90;;;;;;5074426;28;20235;-76